Time;durP1;ratioP1;P1;durP2;ratioP2;P2;SDS_P1;SDS_P2;PMS_P1;PMS_P2;Temp;Humidity;BMP_temperature;BMP_pressure;BME280_temperature;BME280_humidity;BME280_pressure;Samples;Min_cycle;Max_cycle;Signal;HPM_P1;HPM_P2
2022/01/29 00:01:13;;;;;;;10.82;8.00;;;10.60;99.90;;;;;;5087291;28;20028;-68
2022/01/29 00:03:39;;;;;;;12.38;8.13;;;10.60;99.90;;;;;;5084698;28;20372;-68
2022/01/29 00:06:05;;;;;;;11.82;8.43;;;10.60;99.90;;;;;;5084835;28;20124;-68
2022/01/29 00:08:31;;;;;;;11.27;8.18;;;10.60;99.90;;;;;;5092219;28;20044;-68
2022/01/29 00:11:07;;;;;;;12.45;8.43;;;10.60;99.90;;;;;;5089478;28;20055;-68
2022/01/29 00:13:32;;;;;;;12.38;8.23;;;10.60;99.90;;;;;;5090899;28;20510;-68
2022/01/29 00:15:58;;;;;;;11.80;8.48;;;10.60;99.90;;;;;;5084698;28;20020;-68
2022/01/29 00:18:24;;;;;;;10.68;8.15;;;10.60;99.90;;;;;;5083536;28;20020;-68
2022/01/29 00:20:49;;;;;;;11.18;8.15;;;10.60;99.90;;;;;;5095314;28;20031;-68
2022/01/29 00:23:15;;;;;;;12.25;8.75;;;10.60;99.90;;;;;;5090581;28;20028;-68
2022/01/29 00:25:41;;;;;;;11.75;7.90;;;10.60;99.90;;;;;;5100947;28;20386;-68
2022/01/29 00:28:07;;;;;;;12.02;8.30;;;10.60;99.90;;;;;;5092251;28;20032;-69
2022/01/29 00:30:39;;;;;;;11.70;8.48;;;10.60;99.90;;;;;;5088125;28;20027;-68
2022/01/29 00:33:05;;;;;;;11.82;8.77;;;10.60;99.90;;;;;;5094164;28;20069;-67
2022/01/29 00:35:31;;;;;;;12.13;8.60;;;10.60;99.90;;;;;;5088497;28;20082;-69
2022/01/29 00:37:56;;;;;;;12.30;8.90;;;10.50;99.90;;;;;;5099672;28;20482;-68
2022/01/29 00:40:22;;;;;;;12.48;8.38;;;10.50;99.90;;;;;;5090825;28;20020;-69
2022/01/29 00:42:48;;;;;;;12.52;8.75;;;10.50;99.90;;;;;;5083333;28;20032;-68
2022/01/29 00:45:15;;;;;;;12.27;8.13;;;10.50;99.90;;;;;;5088336;28;20036;-68
2022/01/29 00:47:41;;;;;;;12.80;8.88;;;10.50;99.90;;;;;;5088046;28;20074;-68
2022/01/29 00:50:09;;;;;;;12.32;8.20;;;10.50;99.90;;;;;;5089289;28;20056;-69
2022/01/29 00:52:35;;;;;;;13.50;8.57;;;10.40;99.90;;;;;;5087150;28;20027;-68
2022/01/29 00:55:01;;;;;;;15.23;8.75;;;10.30;99.90;;;;;;5092399;28;20025;-68
2022/01/29 00:57:28;;;;;;;14.55;8.70;;;10.20;99.90;;;;;;5091543;28;20036;-68
2022/01/29 00:59:54;;;;;;;13.18;8.88;;;10.20;99.90;;;;;;5080020;28;20495;-68
2022/01/29 01:02:20;;;;;;;11.50;8.07;;;10.10;99.90;;;;;;5092350;28;20038;-68
2022/01/29 01:04:47;;;;;;;11.32;7.53;;;10.10;99.90;;;;;;5093591;28;20162;-68
2022/01/29 01:07:13;;;;;;;10.52;6.97;;;10.10;99.90;;;;;;5092445;28;20020;-68
2022/01/29 01:09:39;;;;;;;9.75;7.18;;;10.20;99.90;;;;;;5102290;28;20027;-68
2022/01/29 01:12:06;;;;;;;10.60;6.68;;;10.20;99.90;;;;;;5096325;28;20020;-68
2022/01/29 01:14:32;;;;;;;14.30;7.07;;;10.20;99.90;;;;;;5092365;28;20020;-68
2022/01/29 01:16:58;;;;;;;12.30;7.15;;;10.20;99.90;;;;;;5095813;28;20099;-68
2022/01/29 01:19:25;;;;;;;12.05;7.18;;;10.20;99.90;;;;;;5091626;28;20040;-69
2022/01/29 01:21:55;;;;;;;10.93;7.00;;;10.20;99.90;;;;;;5102819;28;20020;-68
2022/01/29 01:24:22;;;;;;;10.90;7.85;;;10.30;99.90;;;;;;5106352;28;20081;-68
2022/01/29 01:26:48;;;;;;;10.98;7.47;;;10.30;99.90;;;;;;5091950;28;20026;-68
2022/01/29 01:29:14;;;;;;;11.10;7.22;;;10.30;99.90;;;;;;5091816;28;20028;-69
2022/01/29 01:31:40;;;;;;;12.52;7.72;;;10.30;99.90;;;;;;5086148;28;20047;-68
2022/01/29 01:34:07;;;;;;;14.32;7.80;;;10.30;99.90;;;;;;5093880;28;20062;-69
2022/01/29 01:36:35;;;;;;;12.88;7.45;;;10.30;99.90;;;;;;5090270;28;20032;-69
2022/01/29 01:39:07;;;;;;;14.15;7.55;;;10.30;99.90;;;;;;5093187;28;20059;-69
2022/01/29 01:41:39;;;;;;;10.52;7.15;;;10.30;99.90;;;;;;5075663;28;20033;-69
2022/01/29 01:44:05;;;;;;;10.50;7.53;;;10.30;99.90;;;;;;5079993;28;20491;-68
2022/01/29 01:46:31;;;;;;;11.80;7.43;;;10.30;99.90;;;;;;5093181;28;20032;-68
2022/01/29 01:48:57;;;;;;;12.73;7.55;;;10.30;99.90;;;;;;5085962;28;20043;-68
2022/01/29 01:51:24;;;;;;;10.77;7.53;;;10.40;99.90;;;;;;5096674;28;20017;-68
2022/01/29 01:53:50;;;;;;;10.70;7.22;;;10.40;99.90;;;;;;5090597;28;20036;-68
2022/01/29 01:56:15;;;;;;;11.68;7.22;;;10.40;99.90;;;;;;5078179;28;20074;-68
2022/01/29 01:58:41;;;;;;;13.23;7.05;;;10.40;99.90;;;;;;5088932;28;20035;-68
2022/01/29 02:01:07;;;;;;;10.45;6.80;;;10.40;99.90;;;;;;5085822;28;20020;-68
2022/01/29 02:03:33;;;;;;;13.10;7.32;;;10.40;99.90;;;;;;5085320;28;20453;-68
2022/01/29 02:06:01;;;;;;;11.10;7.40;;;10.40;99.90;;;;;;5089070;28;20032;-68
2022/01/29 02:08:27;;;;;;;14.05;7.22;;;10.40;99.90;;;;;;5092332;28;20042;-68
2022/01/29 02:11:00;;;;;;;11.88;7.40;;;10.40;99.90;;;;;;5094900;28;20483;-68
2022/01/29 02:13:28;;;;;;;12.77;7.20;;;10.40;99.90;;;;;;5084709;28;20115;-68
2022/01/29 02:15:55;;;;;;;12.18;7.40;;;10.40;99.90;;;;;;5085733;28;20028;-68
2022/01/29 02:18:20;;;;;;;13.40;7.80;;;10.40;99.90;;;;;;5089403;28;20074;-68
2022/01/29 02:20:46;;;;;;;14.32;7.10;;;10.40;99.90;;;;;;5081006;28;20027;-68
2022/01/29 02:23:12;;;;;;;13.95;7.40;;;10.40;99.90;;;;;;5088149;28;20127;-68
2022/01/29 02:25:46;;;;;;;10.68;6.97;;;10.40;99.90;;;;;;5092049;28;20488;-68
2022/01/29 02:28:17;;;;;;;13.73;7.32;;;10.40;99.90;;;;;;5091521;28;20514;-68
2022/01/29 02:31:03;;;;;;;12.90;7.05;;;10.40;99.90;;;;;;5096580;28;20069;-68
2022/01/29 02:33:34;;;;;;;13.93;7.70;;;10.40;99.90;;;;;;5090070;28;20020;-68
2022/01/29 02:35:59;;;;;;;11.88;7.10;;;10.40;99.90;;;;;;5090740;28;20032;-68
2022/01/29 02:38:27;;;;;;;13.07;7.10;;;10.40;99.90;;;;;;5091019;28;20020;-68
2022/01/29 02:41:01;;;;;;;12.07;6.97;;;10.40;99.90;;;;;;5088925;28;20443;-68
2022/01/29 02:43:34;;;;;;;11.80;7.15;;;10.40;99.90;;;;;;5082761;28;20039;-68
2022/01/29 02:46:18;;;;;;;10.05;7.05;;;10.40;99.90;;;;;;5093557;28;20024;-68
2022/01/29 02:48:45;;;;;;;13.52;7.30;;;10.40;99.90;;;;;;5086983;28;20044;-68
2022/01/29 02:51:11;;;;;;;12.60;7.88;;;10.40;99.90;;;;;;5087048;28;20020;-67
2022/01/29 02:53:37;;;;;;;15.13;7.68;;;10.40;99.90;;;;;;5089938;28;20100;-68
2022/01/29 02:56:03;;;;;;;13.48;7.72;;;10.40;99.90;;;;;;5093295;28;20019;-68
2022/01/29 02:58:29;;;;;;;13.05;7.43;;;10.40;99.90;;;;;;5091103;28;20153;-68
2022/01/29 03:00:55;;;;;;;13.60;7.70;;;10.40;99.90;;;;;;5102574;28;20106;-68
2022/01/29 03:03:21;;;;;;;14.68;8.00;;;10.40;99.90;;;;;;5088014;28;20049;-68
2022/01/29 03:05:47;;;;;;;13.07;7.85;;;10.40;99.90;;;;;;5094171;28;20023;-67
2022/01/29 03:08:13;;;;;;;15.70;7.90;;;10.40;99.90;;;;;;5092970;28;20036;-68
2022/01/29 03:10:39;;;;;;;14.80;8.07;;;10.40;99.90;;;;;;5087913;28;20093;-67
2022/01/29 03:13:05;;;;;;;13.88;8.23;;;10.40;99.90;;;;;;5080812;28;20032;-67
2022/01/29 03:15:31;;;;;;;13.35;7.85;;;10.40;99.90;;;;;;5099667;28;20039;-68
2022/01/29 03:17:57;;;;;;;12.77;7.60;;;10.40;99.90;;;;;;5091751;28;20020;-67
2022/01/29 03:20:22;;;;;;;16.60;9.07;;;10.40;99.90;;;;;;5095208;28;20035;-68
2022/01/29 03:22:48;;;;;;;18.08;8.25;;;10.40;99.90;;;;;;5084943;28;20024;-68
2022/01/29 03:25:16;;;;;;;14.40;8.02;;;10.40;99.90;;;;;;5101788;28;20032;-68
2022/01/29 03:27:42;;;;;;;15.52;8.40;;;10.40;99.90;;;;;;5092304;28;20021;-67
2022/01/29 03:30:09;;;;;;;14.20;7.97;;;10.40;99.90;;;;;;5108483;28;20042;-67
2022/01/29 03:32:35;;;;;;;12.70;7.65;;;10.40;99.90;;;;;;5090614;28;20054;-67
2022/01/29 03:35:02;;;;;;;16.50;8.70;;;10.40;99.90;;;;;;5090608;28;20020;-68
2022/01/29 03:37:27;;;;;;;13.80;7.82;;;10.40;99.90;;;;;;5094750;28;20039;-67
2022/01/29 03:39:58;;;;;;;14.40;8.32;;;10.40;99.90;;;;;;5092096;28;20572;-68
2022/01/29 03:42:24;;;;;;;15.02;8.88;;;10.40;99.90;;;;;;5088770;28;20055;-67
2022/01/29 03:44:50;;;;;;;16.13;8.73;;;10.40;99.90;;;;;;5072973;28;20039;-67
2022/01/29 03:47:16;;;;;;;17.38;9.20;;;10.40;99.90;;;;;;5088891;28;20028;-67
2022/01/29 03:49:42;;;;;;;16.70;8.98;;;10.40;99.90;;;;;;5098703;28;20110;-68
2022/01/29 03:52:07;;;;;;;15.80;9.18;;;10.40;99.90;;;;;;5091437;28;20115;-68
2022/01/29 03:54:33;;;;;;;16.30;8.82;;;10.40;99.90;;;;;;5083019;28;20025;-67
2022/01/29 03:56:59;;;;;;;17.25;9.38;;;10.40;99.90;;;;;;5079679;28;20119;-68
2022/01/29 03:59:25;;;;;;;16.70;9.63;;;10.40;99.90;;;;;;5102225;28;20039;-67
2022/01/29 04:01:50;;;;;;;18.33;9.90;;;10.30;99.90;;;;;;5095893;28;20031;-67
2022/01/29 04:04:16;;;;;;;17.38;10.23;;;10.40;99.90;;;;;;5083294;28;20053;-67
2022/01/29 04:06:42;;;;;;;17.63;9.50;;;10.40;99.90;;;;;;5088050;28;20024;-68
2022/01/29 04:09:10;;;;;;;19.45;10.15;;;10.40;99.90;;;;;;5093734;28;20082;-67
2022/01/29 04:11:38;;;;;;;18.40;10.32;;;10.40;99.90;;;;;;5088026;28;20036;-68
2022/01/29 04:14:16;;;;;;;19.35;9.82;;;10.30;99.90;;;;;;5090906;28;20566;-68
2022/01/29 04:16:42;;;;;;;17.75;10.23;;;10.40;99.90;;;;;;5087456;28;20056;-68
2022/01/29 04:19:08;;;;;;;19.63;10.60;;;10.40;99.90;;;;;;5084017;28;20407;-69
2022/01/29 04:21:34;;;;;;;17.52;10.30;;;10.40;99.90;;;;;;5093802;28;20475;-68
2022/01/29 04:24:00;;;;;;;20.02;10.85;;;10.40;99.90;;;;;;5076184;28;20073;-68
2022/01/29 04:26:26;;;;;;;19.05;10.18;;;10.40;99.90;;;;;;5096674;28;20032;-68
2022/01/29 04:28:52;;;;;;;17.75;10.23;;;10.40;99.90;;;;;;5102014;28;20035;-69
2022/01/29 04:31:21;;;;;;;19.13;10.70;;;10.40;99.90;;;;;;5100632;28;20037;-68
2022/01/29 04:33:46;;;;;;;20.73;10.95;;;10.40;99.90;;;;;;5088877;28;20028;-68
2022/01/29 04:36:12;;;;;;;19.63;10.60;;;10.40;99.90;;;;;;5092304;28;20020;-69
2022/01/29 04:38:38;;;;;;;18.40;10.82;;;10.40;99.90;;;;;;5102104;28;20046;-69
2022/01/29 04:41:05;;;;;;;21.17;11.20;;;10.40;99.90;;;;;;5083919;28;20755;-68
2022/01/29 04:43:36;;;;;;;20.65;11.40;;;10.40;99.90;;;;;;5089996;28;20039;-69
2022/01/29 04:46:03;;;;;;;21.48;11.65;;;10.40;99.90;;;;;;5091250;28;20024;-69
2022/01/29 04:48:29;;;;;;;22.23;12.13;;;10.40;99.90;;;;;;5092551;28;20483;-69
2022/01/29 04:50:54;;;;;;;21.35;11.70;;;10.40;99.90;;;;;;5089721;28;20052;-69
2022/01/29 04:53:21;;;;;;;22.10;12.40;;;10.40;99.90;;;;;;5100595;28;20097;-69
2022/01/29 04:55:46;;;;;;;24.10;12.23;;;10.40;99.90;;;;;;5088818;28;20024;-69
2022/01/29 04:58:12;;;;;;;22.63;12.48;;;10.40;99.90;;;;;;5088489;28;20027;-69
2022/01/29 05:00:38;;;;;;;25.40;13.18;;;10.40;99.90;;;;;;5090346;28;20059;-69
2022/01/29 05:03:22;;;;;;;24.85;13.68;;;10.30;99.90;;;;;;5088988;28;20090;-68
2022/01/29 05:05:48;;;;;;;22.10;13.00;;;10.40;99.90;;;;;;5080484;28;21143;-68
2022/01/29 05:08:14;;;;;;;24.05;12.60;;;10.30;99.90;;;;;;5088299;28;20030;-69
2022/01/29 05:10:39;;;;;;;24.63;12.40;;;10.30;99.90;;;;;;5090959;28;20028;-69
2022/01/29 05:13:08;;;;;;;21.85;12.15;;;10.30;99.90;;;;;;5092319;28;20093;-68
2022/01/29 05:15:41;;;;;;;22.13;12.52;;;10.30;99.90;;;;;;5091889;28;20036;-69
2022/01/29 05:29:14;;;;;;;23.00;12.57;;;10.30;99.90;;;;;;5090118;28;20112;-69
2022/01/29 05:31:44;;;;;;;21.90;11.80;;;10.40;99.90;;;;;;5088115;28;20103;-69
2022/01/29 05:34:17;;;;;;;19.90;11.50;;;10.30;99.90;;;;;;5081839;28;20040;-69
2022/01/29 05:36:46;;;;;;;20.02;10.88;;;10.30;99.90;;;;;;5085685;28;20020;-69
2022/01/29 05:39:17;;;;;;;18.80;10.60;;;10.30;99.90;;;;;;5085115;28;20029;-68
2022/01/29 05:41:46;;;;;;;17.88;10.63;;;10.30;99.90;;;;;;5074197;28;20020;-69
2022/01/29 05:44:15;;;;;;;18.88;10.43;;;10.30;99.90;;;;;;5088920;28;20127;-69
2022/01/29 05:46:52;;;;;;;19.27;9.75;;;10.30;99.90;;;;;;5091171;28;20016;-69
2022/01/29 05:49:21;;;;;;;18.58;9.93;;;10.30;99.90;;;;;;5081659;28;20048;-69
2022/01/29 05:51:50;;;;;;;18.02;9.48;;;10.30;99.90;;;;;;5087734;28;20194;-68
2022/01/29 05:54:20;;;;;;;20.00;9.88;;;10.30;99.90;;;;;;5076641;28;20047;-69
2022/01/29 05:56:47;;;;;;;22.65;9.98;;;10.30;99.90;;;;;;5074920;28;20024;-68
2022/01/29 05:59:13;;;;;;;19.25;10.05;;;10.30;99.90;;;;;;5090548;28;20032;-69
2022/01/29 06:01:38;;;;;;;19.02;9.68;;;10.30;99.90;;;;;;5089581;28;20017;-69
2022/01/29 06:04:06;;;;;;;17.33;9.32;;;10.30;99.90;;;;;;5087853;28;20138;-69
2022/01/29 06:06:32;;;;;;;18.50;10.23;;;10.30;99.90;;;;;;5093174;28;20032;-68
2022/01/29 06:09:01;;;;;;;19.83;9.27;;;10.30;99.90;;;;;;5095474;28;20103;-69
2022/01/29 06:11:28;;;;;;;20.05;9.93;;;10.30;99.90;;;;;;5091666;28;20081;-68
2022/01/29 06:13:54;;;;;;;20.88;10.13;;;10.30;99.90;;;;;;5088480;28;20562;-68
2022/01/29 06:16:19;;;;;;;17.67;8.98;;;10.30;99.90;;;;;;5085715;28;20073;-68
2022/01/29 06:18:45;;;;;;;18.13;9.32;;;10.30;99.90;;;;;;5093217;28;20024;-69
2022/01/29 06:21:13;;;;;;;18.05;9.30;;;10.30;99.90;;;;;;5093449;28;20027;-68
2022/01/29 06:23:39;;;;;;;16.10;8.23;;;10.30;99.90;;;;;;5090150;27;20048;-69
2022/01/29 06:26:09;;;;;;;17.85;8.35;;;10.30;99.90;;;;;;5090010;28;20048;-68
2022/01/29 06:28:35;;;;;;;15.75;7.75;;;10.30;99.90;;;;;;5084832;28;20020;-69
2022/01/29 06:31:01;;;;;;;15.98;7.88;;;10.30;99.90;;;;;;5089162;28;20077;-69
2022/01/29 06:33:27;;;;;;;20.02;8.27;;;10.30;99.90;;;;;;5091244;28;20032;-68
2022/01/29 06:35:53;;;;;;;17.92;8.50;;;10.30;99.90;;;;;;5084487;28;20025;-68
2022/01/29 06:38:19;;;;;;;16.67;8.18;;;10.30;99.90;;;;;;5093733;28;20031;-69
2022/01/29 06:40:45;;;;;;;17.48;8.60;;;10.30;99.90;;;;;;5086391;28;20039;-68
2022/01/29 06:43:11;;;;;;;16.60;8.05;;;10.30;99.90;;;;;;5084542;28;20028;-68
2022/01/29 06:45:42;;;;;;;15.82;7.95;;;10.30;99.90;;;;;;5086871;28;20024;-69
2022/01/29 06:48:08;;;;;;;15.65;7.32;;;10.30;99.90;;;;;;5086354;28;20028;-69
2022/01/29 06:50:36;;;;;;;16.25;7.70;;;10.30;99.90;;;;;;5087597;28;20100;-69
2022/01/29 06:53:05;;;;;;;16.55;7.07;;;10.30;99.90;;;;;;5087356;28;20024;-68
2022/01/29 06:55:31;;;;;;;13.98;7.15;;;10.30;99.90;;;;;;5084977;28;20061;-69
2022/01/29 06:57:57;;;;;;;15.43;7.20;;;10.30;99.90;;;;;;5085267;28;20109;-69
2022/01/29 07:00:23;;;;;;;13.55;7.22;;;10.30;99.90;;;;;;5090087;28;20024;-69
2022/01/29 07:02:48;;;;;;;18.10;7.03;;;10.30;99.90;;;;;;5088418;28;20035;-69
2022/01/29 07:05:14;;;;;;;11.65;6.15;;;10.30;99.90;;;;;;5093593;28;20044;-69
2022/01/29 07:07:40;;;;;;;13.50;6.35;;;10.30;99.90;;;;;;5089910;28;20016;-69
2022/01/29 07:10:07;;;;;;;13.38;5.80;;;10.30;99.90;;;;;;5085994;28;20486;-69
2022/01/29 07:12:36;;;;;;;13.70;6.20;;;10.30;99.90;;;;;;5086611;28;20051;-69
2022/01/29 07:15:02;;;;;;;12.00;6.05;;;10.30;99.90;;;;;;5074560;28;20024;-69
2022/01/29 07:17:28;;;;;;;13.27;5.90;;;10.30;99.90;;;;;;5091206;28;20043;-69
2022/01/29 07:19:53;;;;;;;11.13;5.88;;;10.30;99.90;;;;;;5075557;28;20025;-67
2022/01/29 07:22:20;;;;;;;13.95;6.50;;;10.30;99.90;;;;;;5088566;28;20023;-68
2022/01/29 07:24:49;;;;;;;13.65;6.57;;;10.30;99.90;;;;;;5096557;28;20499;-68
2022/01/29 07:27:15;;;;;;;14.55;6.90;;;10.30;99.90;;;;;;5102403;28;20028;-69
2022/01/29 07:29:41;;;;;;;16.15;7.07;;;10.30;99.90;;;;;;5095326;28;20067;-69
2022/01/29 07:32:07;;;;;;;11.82;6.43;;;10.30;99.90;;;;;;5091267;28;20108;-69
2022/01/29 07:34:33;;;;;;;11.65;6.30;;;10.30;99.90;;;;;;5082206;28;20481;-69
2022/01/29 07:36:59;;;;;;;13.98;6.85;;;10.30;99.90;;;;;;5086984;28;20039;-70
2022/01/29 07:39:26;;;;;;;12.48;6.13;;;10.30;99.90;;;;;;5088002;28;20111;-67
2022/01/29 07:41:52;;;;;;;14.30;6.55;;;10.30;99.90;;;;;;5100575;28;20016;-68
2022/01/29 07:44:18;;;;;;;14.93;6.70;;;10.30;99.90;;;;;;5083741;28;20032;-69
2022/01/29 07:46:45;;;;;;;13.63;6.85;;;10.30;99.90;;;;;;5086924;28;20560;-66
2022/01/29 07:49:11;;;;;;;12.68;6.30;;;10.30;99.90;;;;;;5090690;28;20101;-69
2022/01/29 07:51:38;;;;;;;12.50;6.03;;;10.30;99.90;;;;;;5086159;28;20016;-71
2022/01/29 07:54:04;;;;;;;13.98;6.05;;;10.40;99.90;;;;;;5087225;28;20031;-69
2022/01/29 07:56:30;;;;;;;12.05;6.05;;;10.40;99.90;;;;;;5088768;28;20024;-69
2022/01/29 07:59:00;;;;;;;13.98;6.25;;;10.40;99.90;;;;;;5087521;28;20497;-70
2022/01/29 08:01:30;;;;;;;12.55;6.78;;;10.40;99.90;;;;;;5089875;28;20020;-69
2022/01/29 08:03:58;;;;;;;11.93;5.57;;;10.50;99.90;;;;;;5085910;28;20047;-71
2022/01/29 08:06:26;;;;;;;13.82;6.60;;;10.50;99.90;;;;;;5084808;28;20024;-69
2022/01/29 08:08:52;;;;;;;13.65;6.13;;;10.50;99.90;;;;;;5093290;28;20047;-70
2022/01/29 08:11:19;;;;;;;13.88;6.50;;;10.50;99.90;;;;;;5082247;28;20024;-69
2022/01/29 08:13:46;;;;;;;12.55;6.03;;;10.50;99.90;;;;;;5081704;28;20035;-69
2022/01/29 08:16:15;;;;;;;15.48;7.90;;;10.50;99.90;;;;;;5085977;28;20101;-70
2022/01/29 08:18:43;;;;;;;16.75;7.63;;;10.60;99.90;;;;;;5088860;28;20043;-70
2022/01/29 08:21:13;;;;;;;13.82;6.30;;;10.70;99.90;;;;;;5088233;28;20037;-72
2022/01/29 08:23:39;;;;;;;12.80;6.33;;;10.70;99.90;;;;;;5086154;28;20395;-71
2022/01/29 08:26:05;;;;;;;13.60;6.25;;;10.70;99.90;;;;;;5086162;28;20027;-68
2022/01/29 08:28:31;;;;;;;13.05;6.55;;;10.70;99.90;;;;;;5084246;28;20088;-70
2022/01/29 08:30:56;;;;;;;15.20;6.90;;;10.70;99.90;;;;;;5080074;28;20125;-70
2022/01/29 08:33:22;;;;;;;10.10;5.75;;;10.90;99.90;;;;;;5081749;28;20153;-70
2022/01/29 08:35:48;;;;;;;11.70;5.90;;;11.00;99.90;;;;;;5087871;28;20071;-70
2022/01/29 08:38:14;;;;;;;11.25;6.05;;;11.00;99.90;;;;;;5086950;28;20739;-70
2022/01/29 08:40:40;;;;;;;10.68;5.97;;;11.00;99.90;;;;;;5087976;28;20032;-70
2022/01/29 08:43:07;;;;;;;11.63;6.15;;;11.10;99.90;;;;;;5080504;28;20027;-70
2022/01/29 08:45:33;;;;;;;11.50;5.97;;;11.20;99.90;;;;;;5081629;28;20027;-71
2022/01/29 08:47:58;;;;;;;10.65;5.63;;;11.40;99.90;;;;;;5102764;28;20032;-70
2022/01/29 08:50:24;;;;;;;8.48;4.80;;;11.40;99.90;;;;;;5090987;28;20517;-71
2022/01/29 08:52:50;;;;;;;10.30;5.00;;;11.40;99.90;;;;;;5080491;28;20028;-71
2022/01/29 08:55:16;;;;;;;11.82;5.10;;;11.40;99.90;;;;;;5085756;28;20028;-71
2022/01/29 08:57:41;;;;;;;12.02;5.18;;;11.30;99.90;;;;;;5092458;28;20019;-71
2022/01/29 09:00:10;;;;;;;9.18;4.85;;;11.30;99.90;;;;;;5087974;28;20123;-71
2022/01/29 09:02:36;;;;;;;10.43;5.00;;;11.30;99.90;;;;;;5091136;28;20020;-70
2022/01/29 09:05:02;;;;;;;10.15;5.38;;;11.50;99.90;;;;;;5092957;28;20036;-70
2022/01/29 09:07:28;;;;;;;9.85;4.88;;;11.60;99.90;;;;;;5082773;28;20472;-70
2022/01/29 09:09:55;;;;;;;9.93;5.13;;;11.50;99.90;;;;;;5085346;28;20024;-69
2022/01/29 09:12:21;;;;;;;10.13;4.88;;;11.60;99.90;;;;;;5089417;28;20020;-70
2022/01/29 09:14:47;;;;;;;8.77;4.40;;;11.70;99.90;;;;;;5092156;28;20031;-71
2022/01/29 09:17:13;;;;;;;7.68;4.03;;;12.10;99.90;;;;;;5094534;28;20051;-70
2022/01/29 09:19:39;;;;;;;8.55;4.15;;;12.50;99.90;;;;;;5090442;28;20044;-70
2022/01/29 09:22:04;;;;;;;7.15;3.80;;;12.50;99.90;;;;;;5085754;28;20483;-69
2022/01/29 09:24:30;;;;;;;6.07;3.67;;;12.60;99.90;;;;;;5084837;28;20067;-69
2022/01/29 09:26:57;;;;;;;7.22;3.70;;;12.90;99.90;;;;;;5091125;28;20032;-70
2022/01/29 09:29:22;;;;;;;6.75;3.60;;;13.00;99.90;;;;;;5090465;28;20073;-69
2022/01/29 09:31:48;;;;;;;7.35;3.20;;;13.10;99.90;;;;;;5084738;28;20028;-70
2022/01/29 09:34:14;;;;;;;5.07;3.22;;;13.40;99.90;;;;;;5085341;28;20028;-70
2022/01/29 09:36:40;;;;;;;5.72;2.78;;;13.90;99.90;;;;;;5079535;28;20023;-68
2022/01/29 09:39:05;;;;;;;6.43;3.20;;;13.70;99.90;;;;;;5089546;28;20450;-69
2022/01/29 09:41:32;;;;;;;5.38;3.00;;;13.50;99.90;;;;;;5083953;28;20038;-70
2022/01/29 09:43:58;;;;;;;6.97;3.17;;;13.40;99.90;;;;;;5080028;28;20032;-70
2022/01/29 09:46:28;;;;;;;5.82;3.25;;;13.20;99.90;;;;;;5081567;28;20072;-69
2022/01/29 09:48:55;;;;;;;6.82;2.90;;;13.10;99.90;;;;;;5087156;28;20028;-70
2022/01/29 09:51:21;;;;;;;5.45;2.83;;;13.10;99.90;;;;;;5098535;28;20028;-70
2022/01/29 09:53:46;;;;;;;5.47;2.85;;;13.40;99.90;;;;;;5091000;28;20034;-69
2022/01/29 09:56:14;;;;;;;7.07;2.95;;;13.60;99.90;;;;;;5082748;28;20019;-70
2022/01/29 09:58:41;;;;;;;7.18;3.40;;;13.80;99.90;;;;;;5098243;28;20027;-70
2022/01/29 10:01:07;;;;;;;4.63;2.30;;;14.10;99.90;;;;;;5094295;28;20091;-67
2022/01/29 10:03:33;;;;;;;5.40;2.60;;;13.90;99.90;;;;;;5089847;28;20040;-67
2022/01/29 10:06:01;;;;;;;7.47;2.50;;;13.70;99.90;;;;;;5074726;28;20029;-68
2022/01/29 10:08:28;;;;;;;4.70;2.40;;;13.50;99.90;;;;;;5089978;28;20015;-68
2022/01/29 10:10:56;;;;;;;4.95;2.30;;;13.20;99.90;;;;;;5090695;28;20035;-68
2022/01/29 10:13:36;;;;;;;5.55;2.30;;;13.20;99.90;;;;;;5086738;28;20035;-68
2022/01/29 10:16:08;;;;;;;6.05;2.20;;;13.10;99.90;;;;;;5089824;28;20099;-68
2022/01/29 10:18:35;;;;;;;4.75;1.80;;;13.20;99.90;;;;;;5106042;28;20051;-69
2022/01/29 10:21:23;;;;;;;3.95;1.63;;;13.20;99.90;;;;;;5088237;28;20059;-69
2022/01/29 10:24:08;;;;;;;3.90;1.80;;;13.30;99.90;;;;;;5085955;28;20045;-69
2022/01/29 10:26:42;;;;;;;3.70;1.70;;;13.60;99.90;;;;;;5088018;28;20020;-69
2022/01/29 10:29:15;;;;;;;4.35;1.83;;;13.80;99.90;;;;;;5079163;28;20028;-71
2022/01/29 10:31:52;;;;;;;5.68;1.85;;;13.80;99.90;;;;;;5078114;28;20555;-69
2022/01/29 10:34:29;;;;;;;5.95;2.10;;;13.80;99.90;;;;;;5084367;28;20069;-70
2022/01/29 10:37:13;;;;;;;4.88;2.10;;;13.70;99.90;;;;;;5083886;28;20028;-69
2022/01/29 10:39:40;;;;;;;4.18;2.05;;;13.40;99.90;;;;;;5076468;28;20020;-69
2022/01/29 10:42:17;;;;;;;4.72;2.03;;;13.30;99.90;;;;;;5086933;28;20020;-72
2022/01/29 10:44:45;;;;;;;3.67;1.67;;;13.20;99.90;;;;;;5089217;28;20406;-69
2022/01/29 10:47:12;;;;;;;4.85;1.60;;;13.20;99.90;;;;;;5085479;28;20028;-71
2022/01/29 10:49:44;;;;;;;3.88;1.63;;;13.30;99.90;;;;;;5079456;28;20051;-70
2022/01/29 10:52:17;;;;;;;5.47;1.90;;;13.40;99.90;;;;;;5084089;28;20020;-71
2022/01/29 10:54:46;;;;;;;4.03;1.73;;;13.40;99.90;;;;;;5085294;28;20031;-72
2022/01/29 10:57:15;;;;;;;5.18;1.92;;;13.30;99.90;;;;;;5089397;28;20029;-71
2022/01/29 10:59:52;;;;;;;4.93;2.50;;;13.20;99.90;;;;;;5102783;28;20553;-70
2022/01/29 11:02:20;;;;;;;4.78;2.28;;;13.20;99.90;;;;;;5096171;28;20028;-69
2022/01/29 11:04:48;;;;;;;4.97;2.00;;;13.20;99.90;;;;;;5086456;28;20105;-70
2022/01/29 11:07:26;;;;;;;3.95;2.13;;;13.20;99.90;;;;;;5089304;28;20039;-71
2022/01/29 11:09:52;;;;;;;7.10;1.90;;;13.20;99.90;;;;;;5085791;28;20025;-70
2022/01/29 11:12:20;;;;;;;3.35;1.60;;;13.20;99.90;;;;;;5094605;28;20036;-69
2022/01/29 11:14:48;;;;;;;5.72;1.80;;;13.10;99.90;;;;;;5099733;28;20799;-68
2022/01/29 11:17:15;;;;;;;4.22;1.88;;;13.10;99.90;;;;;;5097847;28;20020;-70
2022/01/29 11:19:41;;;;;;;3.67;1.70;;;13.20;99.90;;;;;;5093738;28;20024;-69
2022/01/29 11:22:09;;;;;;;4.18;1.70;;;13.10;99.90;;;;;;5091712;28;20028;-68
2022/01/29 11:24:38;;;;;;;3.28;1.50;;;13.10;99.90;;;;;;5092776;28;20114;-72
2022/01/29 11:27:31;;;;;;;5.40;1.77;;;13.10;99.90;;;;;;5090739;28;20031;-70
2022/01/29 11:30:10;;;;;;;3.75;1.70;;;13.20;99.90;;;;;;5075473;28;20040;-70
2022/01/29 11:32:42;;;;;;;3.05;1.40;;;13.50;99.90;;;;;;5087306;28;20036;-73
2022/01/29 11:35:13;;;;;;;3.67;1.70;;;13.50;99.10;;;;;;5097921;28;20066;-71
2022/01/29 11:38:06;;;;;;;;;;;13.30;99.90;;;;;;5088639;28;20102;-70
2022/01/29 11:40:54;;;;;;;3.33;1.60;;;13.20;99.90;;;;;;5086770;28;19958;-70
2022/01/29 11:43:19;;;;;;;3.92;1.58;;;13.00;99.90;;;;;;5078476;28;20020;-71
2022/01/29 11:46:04;;;;;;;4.05;1.65;;;13.00;99.90;;;;;;5092829;28;20023;-70
2022/01/29 11:48:38;;;;;;;3.80;1.52;;;13.00;99.90;;;;;;5087459;28;20111;-73
2022/01/29 11:51:06;;;;;;;3.90;1.50;;;13.10;99.90;;;;;;5088768;28;20056;-72
2022/01/29 11:53:44;;;;;;;4.70;1.40;;;13.30;99.90;;;;;;5088336;28;20058;-70
2022/01/29 11:56:37;;;;;;;4.65;1.42;;;13.30;99.90;;;;;;5094365;28;20422;-73
2022/01/29 11:59:23;;;;;;;3.47;1.50;;;13.30;99.20;;;;;;5078407;28;20034;-68
2022/01/29 12:01:56;;;;;;;2.90;1.50;;;13.40;98.10;;;;;;5084827;28;20142;-68
2022/01/29 12:04:24;;;;;;;4.10;1.40;;;13.20;98.80;;;;;;5081458;28;20093;-69
2022/01/29 12:07:14;;;;;;;3.20;1.67;;;13.10;99.30;;;;;;5083692;28;20497;-68
2022/01/29 12:09:45;;;;;;;5.72;1.70;;;13.00;99.90;;;;;;5088884;28;20552;-70
2022/01/29 12:12:27;;;;;;;3.40;1.52;;;13.00;99.90;;;;;;5072268;28;20031;-74
2022/01/29 12:14:54;;;;;;;3.35;1.58;;;13.00;99.90;;;;;;5085512;28;20038;-68
2022/01/29 12:17:48;;;;;;;4.07;1.70;;;13.10;99.90;;;;;;5074800;28;20506;-69
2022/01/29 12:20:25;;;;;;;4.07;1.60;;;13.10;99.90;;;;;;5089885;28;20040;-71
2022/01/29 12:22:57;;;;;;;3.92;1.70;;;13.10;99.90;;;;;;5088902;28;20560;-69
2022/01/29 12:25:27;;;;;;;3.42;1.60;;;13.10;99.90;;;;;;5091909;28;20032;-70
2022/01/29 12:28:10;;;;;;;3.17;1.55;;;13.00;99.90;;;;;;5087366;28;20499;-69
2022/01/29 12:30:40;;;;;;;3.55;1.70;;;13.00;99.90;;;;;;5083164;28;20028;-70
2022/01/29 12:33:19;;;;;;;3.20;1.60;;;13.00;99.90;;;;;;5094186;28;20031;-70
2022/01/29 12:35:54;;;;;;;3.05;1.50;;;13.00;99.70;;;;;;5089910;28;20433;-68
2022/01/29 12:38:29;;;;;;;4.95;1.77;;;13.00;99.20;;;;;;5087659;28;20111;-66
2022/01/29 12:41:03;;;;;;;4.38;1.65;;;13.00;99.30;;;;;;5078679;28;20036;-68
2022/01/29 12:43:52;;;;;;;4.47;1.85;;;13.00;99.90;;;;;;5082126;28;20155;-71
2022/01/29 12:46:23;;;;;;;3.08;1.50;;;13.00;99.90;;;;;;5089739;28;20028;-71
2022/01/29 12:49:02;;;;;;;3.20;1.50;;;13.00;99.40;;;;;;5083549;28;20123;-68
2022/01/29 12:51:28;;;;;;;3.60;1.80;;;12.90;99.70;;;;;;5077875;28;20056;-68
2022/01/29 12:54:00;;;;;;;3.40;1.80;;;12.90;99.90;;;;;;5092818;28;20035;-68
2022/01/29 12:56:34;;;;;;;5.70;1.90;;;12.80;99.90;;;;;;5097167;28;20028;-68